Time;durP1;ratioP1;P1;durP2;ratioP2;P2;SDS_P1;SDS_P2;PMS_P1;PMS_P2;Temp;Humidity;BMP_temperature;BMP_pressure;BME280_temperature;BME280_humidity;BME280_pressure;Samples;Min_cycle;Max_cycle;Signal;HPM_P1;HPM_P2
2023/01/10 00:00:48;;;;;;;21.48;13.85;;;;;;;7.73;100.00;98987.50;5026760;28;20036;-66
2023/01/10 00:03:14;;;;;;;19.58;14.10;;;;;;;7.83;100.00;98996.28;5009792;28;20029;-67
2023/01/10 00:05:40;;;;;;;20.33;14.40;;;;;;;7.86;100.00;98996.00;5014955;28;20053;-66
2023/01/10 00:08:06;;;;;;;20.70;13.35;;;;;;;7.86;100.00;98995.16;5020406;28;20033;-66
2023/01/10 00:10:33;;;;;;;20.70;14.43;;;;;;;7.80;100.00;98983.25;5022576;28;20112;-66
2023/01/10 00:15:43;;;;;;;21.80;13.43;;;;;;;7.76;100.00;98968.53;5021941;28;20499;-66
2023/01/10 00:18:08;;;;;;;21.63;13.98;;;;;;;7.86;100.00;98989.81;5016741;28;20124;-66
2023/01/10 00:20:34;;;;;;;21.10;14.15;;;;;;;7.82;100.00;98983.09;5010122;28;20044;-67
2023/01/10 00:22:59;;;;;;;22.85;14.35;;;;;;;7.83;100.00;98979.47;5018093;28;20037;-69
2023/01/10 00:25:25;;;;;;;21.73;14.75;;;;;;;7.79;100.00;98970.06;5011684;28;20037;-69
2023/01/10 00:28:03;;;;;;;20.73;13.73;;;;;;;7.87;100.00;98980.84;5009433;28;20030;-69
2023/01/10 00:30:29;;;;;;;19.63;13.50;;;;;;;7.78;100.00;98963.03;5021410;28;20439;-69
2023/01/10 00:32:55;;;;;;;26.83;14.32;;;;;;;7.79;100.00;98960.22;5020797;28;20111;-68
2023/01/10 00:35:21;;;;;;;20.20;12.93;;;;;;;7.86;100.00;98963.13;4992084;28;20072;-69
2023/01/10 00:37:47;;;;;;;21.90;14.38;;;;;;;7.58;100.00;98911.63;5014391;28;20593;-68
2023/01/10 00:40:13;;;;;;;25.58;14.25;;;;;;;7.80;100.00;98947.72;5011078;28;20129;-69
2023/01/10 00:45:23;;;;;;;19.05;13.07;;;;;;;7.84;100.00;98965.13;5007720;28;20083;-69
2023/01/10 00:47:50;;;;;;;20.73;14.38;;;;;;;7.73;100.00;98954.63;5011028;28;20037;-68
2023/01/10 00:50:16;;;;;;;19.20;13.43;;;;;;;7.85;100.00;98970.31;5017013;28;20041;-69
2023/01/10 00:52:42;;;;;;;20.13;13.77;;;;;;;7.82;100.00;98970.59;5017820;28;20034;-68
2023/01/10 00:55:08;;;;;;;20.70;13.98;;;;;;;7.76;100.00;98960.53;4996659;28;20022;-69
2023/01/10 00:57:33;;;;;;;22.20;15.05;;;;;;;7.81;100.00;98974.28;5023524;28;20563;-69
2023/01/10 00:59:59;;;;;;;20.23;13.65;;;;;;;7.72;100.00;98955.63;5021330;28;20116;-69
2023/01/10 01:02:24;;;;;;;22.75;14.65;;;;;;;7.79;100.00;98978.91;5017880;28;20053;-69
2023/01/10 01:04:50;;;;;;;24.88;14.52;;;;;;;7.81;100.00;98976.09;5016103;28;20025;-69
2023/01/10 01:07:15;;;;;;;18.67;13.40;;;;;;;7.80;100.00;98977.91;5019750;28;20029;-69
2023/01/10 01:10:25;;;;;;;22.42;13.77;;;;;;;7.70;100.00;98973.66;4998974;28;20030;-69
2023/01/10 01:12:26;;;;;;;20.20;13.30;;;;;;;7.84;100.00;98994.47;5020210;28;20111;-69
2023/01/10 01:14:51;;;;;;;23.00;14.05;;;;;;;7.83;100.00;99001.63;5019485;28;20033;-68
2023/01/10 01:17:17;;;;;;;19.73;13.50;;;;;;;7.82;100.00;99007.13;5018247;28;20030;-69
2023/01/10 01:19:43;;;;;;;21.05;13.57;;;;;;;7.74;100.00;98991.03;4995925;28;20443;-69
2023/01/10 01:22:08;;;;;;;21.02;13.63;;;;;;;7.76;100.00;98997.03;5016512;28;20040;-69
2023/01/10 01:24:34;;;;;;;19.33;13.45;;;;;;;7.79;100.00;99002.94;5014462;28;20126;-69
2023/01/10 01:26:59;;;;;;;25.17;14.55;;;;;;;7.49;100.00;98960.56;5019170;28;20452;-69
2023/01/10 01:29:25;;;;;;;21.02;13.25;;;;;;;7.73;100.00;99002.66;5011725;28;20103;-66
2023/01/10 01:31:51;;;;;;;21.67;14.00;;;;;;;7.68;100.00;98997.81;5012468;28;20033;-67
2023/01/10 01:34:16;;;;;;;19.02;12.82;;;;;;;7.76;100.00;99013.91;5018535;28;20092;-67
2023/01/10 01:36:42;;;;;;;21.95;14.15;;;;;;;7.77;100.00;99009.41;5019029;28;20348;-67
2023/01/10 01:39:07;;;;;;;21.25;14.95;;;;;;;7.76;100.00;99011.22;4998277;28;20037;-67
2023/01/10 01:44:18;;;;;;;17.90;12.95;;;;;;;7.66;100.00;99001.59;5018866;28;20036;-67
2023/01/10 01:47:06;;;;;;;20.92;13.63;;;;;;;7.69;100.00;99015.47;5014991;28;20033;-67
2023/01/10 01:49:35;;;;;;;20.05;13.85;;;;;;;7.66;100.00;98999.78;5020512;28;20045;-67
2023/01/10 01:52:06;;;;;;;20.33;13.27;;;;;;;7.70;100.00;99006.47;5009275;28;20037;-67
2023/01/10 01:54:33;;;;;;;17.83;12.90;;;;;;;7.74;100.00;99015.03;5018740;28;20499;-67
2023/01/10 01:57:17;;;;;;;22.13;14.00;;;;;;;7.67;100.00;99000.63;5012704;28;20050;-67
2023/01/10 01:59:45;;;;;;;17.40;12.30;;;;;;;7.67;100.00;98982.75;5015641;28;20683;-67
2023/01/10 02:02:20;;;;;;;19.65;13.23;;;;;;;7.79;100.00;99002.06;5015341;28;20120;-67
2023/01/10 02:04:55;;;;;;;21.33;14.50;;;;;;;7.80;100.00;98998.44;5016378;28;20029;-67
2023/01/10 02:07:23;;;;;;;21.25;13.88;;;;;;;7.79;100.00;98994.91;5008063;28;20030;-67
2023/01/10 02:10:02;;;;;;;21.40;12.82;;;;;;;7.77;100.00;98986.22;5016490;28;20487;-67
2023/01/10 02:12:30;;;;;;;21.48;13.60;;;;;;;7.82;100.00;98983.09;5017368;28;20033;-67
2023/01/10 02:14:58;;;;;;;18.75;13.43;;;;;;;7.83;100.00;98996.28;5010773;28;20157;-67
2023/01/10 02:17:23;;;;;;;21.48;13.25;;;;;;;7.76;100.00;98975.69;4987999;28;20037;-67
2023/01/10 02:20:02;;;;;;;17.50;12.10;;;;;;;7.88;100.00;98986.03;5014416;28;20037;-67
2023/01/10 02:22:55;;;;;;;18.90;12.57;;;;;;;7.90;100.00;98977.88;5018278;28;20036;-67
2023/01/10 02:25:58;;;;;;;20.15;13.40;;;;;;;7.91;100.00;98971.53;5016768;28;20033;-67
2023/01/10 02:28:58;;;;;;;19.05;13.80;;;;;;;7.82;100.00;98965.28;5020199;28;20025;-68
2023/01/10 02:31:51;;;;;;;17.05;11.95;;;;;;;7.94;100.00;98984.56;5015975;28;20426;-69
2023/01/10 02:34:36;;;;;;;18.67;12.68;;;;;;;7.95;100.00;98979.09;5022548;28;20120;-69
2023/01/10 02:37:24;;;;;;;17.20;13.13;;;;;;;7.97;100.00;98987.75;5007407;28;20034;-68
2023/01/10 02:40:00;;;;;;;21.40;13.65;;;;;;;7.84;100.00;98967.78;5022827;28;20025;-67
2023/01/10 02:42:46;;;;;;;18.35;13.05;;;;;;;7.97;100.00;98989.63;5017181;28;20041;-67
2023/01/10 02:45:23;;;;;;;21.60;13.75;;;;;;;7.97;100.00;98981.59;5011738;28;20527;-67
2023/01/10 02:47:48;;;;;;;20.65;13.65;;;;;;;7.99;100.00;98984.94;5022596;28;20036;-67
2023/01/10 02:50:42;;;;;;;19.83;14.05;;;;;;;7.97;100.00;98986.94;5015855;28;20033;-69
2023/01/10 02:53:19;;;;;;;20.27;13.32;;;;;;;8.00;100.00;98991.97;4999297;28;20037;-69
2023/01/10 02:56:05;;;;;;;18.52;13.23;;;;;;;8.01;100.00;98983.81;5014670;28;20109;-68
2023/01/10 02:58:39;;;;;;;20.98;13.48;;;;;;;8.02;100.00;98993.50;5018374;28;20041;-69
2023/01/10 03:01:14;;;;;;;;;;;;;;;8.03;100.00;98991.69;5012739;28;20030;-69
2023/01/10 03:03:50;;;;;;;16.80;12.25;;;;;;;8.04;100.00;98994.22;5019779;28;19913;-69
2023/01/10 03:06:24;;;;;;;21.52;13.73;;;;;;;8.04;100.00;98990.69;5012931;28;20034;-69
2023/01/10 03:09:23;;;;;;;;;;;;;;;8.03;100.00;98992.50;5013160;28;20080;-69
2023/01/10 03:11:56;;;;;;;19.63;12.90;;;;;;;8.05;100.00;98990.53;4978536;28;19924;-69
2023/01/10 03:14:25;;;;;;;16.33;12.35;;;;;;;8.02;100.00;98980.16;4997694;28;20079;-69
2023/01/10 03:16:57;;;;;;;18.83;12.65;;;;;;;8.05;100.00;98987.88;5013349;28;20040;-68
2023/01/10 03:19:27;;;;;;;16.75;12.73;;;;;;;8.07;100.00;98995.72;5012773;28;20025;-69
2023/01/10 03:21:56;;;;;;;17.40;12.32;;;;;;;8.04;100.00;98988.03;5012388;28;20540;-68
2023/01/10 03:24:41;;;;;;;16.10;12.32;;;;;;;8.13;100.00;99000.47;4990846;28;20032;-69
2023/01/10 03:27:13;;;;;;;13.90;11.57;;;;;;;8.14;100.00;98994.13;5013842;28;20485;-69
2023/01/10 03:29:51;;;;;;;17.50;12.60;;;;;;;8.12;100.00;98986.25;5016324;28;20028;-69
2023/01/10 03:32:22;;;;;;;16.90;12.25;;;;;;;8.14;100.00;98988.78;5016411;28;20026;-69
2023/01/10 03:34:48;;;;;;;15.48;11.73;;;;;;;8.14;100.00;98994.13;5023801;28;20037;-69
2023/01/10 03:37:23;;;;;;;18.02;12.25;;;;;;;8.13;100.00;98984.44;5022964;28;20128;-69
2023/01/10 03:40:13;;;;;;;18.00;13.02;;;;;;;8.16;100.00;98992.16;5017386;28;20044;-68
2023/01/10 03:45:43;;;;;;;17.60;11.48;;;;;;;8.13;100.00;98979.09;5009370;28;20098;-69
2023/01/10 03:48:13;;;;;;;14.43;11.52;;;;;;;8.17;100.00;98983.16;5018580;28;20057;-69
2023/01/10 03:50:41;;;;;;;14.15;11.35;;;;;;;8.16;100.00;98981.47;5015510;28;20029;-69
2023/01/10 03:53:07;;;;;;;14.55;10.70;;;;;;;8.14;100.00;98980.78;5025053;28;20521;-69
2023/01/10 03:55:34;;;;;;;15.75;11.82;;;;;;;8.17;100.00;98981.31;5010752;28;20030;-68
2023/01/10 03:57:59;;;;;;;17.83;12.05;;;;;;;8.09;100.00;98970.53;5022493;28;20041;-69
2023/01/10 04:00:25;;;;;;;18.05;12.60;;;;;;;8.20;100.00;98993.53;5017315;28;20098;-69
2023/01/10 04:02:50;;;;;;;16.23;10.98;;;;;;;8.13;100.00;98987.13;5007245;28;20467;-69
2023/01/10 04:05:16;;;;;;;16.10;12.07;;;;;;;8.19;100.00;99000.69;5015014;28;20406;-69
2023/01/10 04:07:41;;;;;;;16.63;12.52;;;;;;;8.19;100.00;98999.88;5013170;28;20048;-68
2023/01/10 04:10:08;;;;;;;16.73;13.00;;;;;;;8.21;100.00;99005.88;5015921;28;20029;-69
2023/01/10 04:12:33;;;;;;;15.82;12.13;;;;;;;8.22;100.00;99004.94;5012053;28;20104;-69
2023/01/10 04:15:00;;;;;;;18.17;12.70;;;;;;;8.23;100.00;99004.78;4992175;28;20129;-69
2023/01/10 04:17:25;;;;;;;16.65;11.50;;;;;;;8.20;100.00;98994.38;5018876;28;20560;-69
2023/01/10 04:19:51;;;;;;;17.83;12.50;;;;;;;8.15;100.00;98983.28;5025304;28;20021;-69
2023/01/10 04:22:16;;;;;;;16.40;11.88;;;;;;;8.27;100.00;99005.31;5011666;28;20022;-68
2023/01/10 04:24:43;;;;;;;16.17;12.40;;;;;;;8.25;100.00;98986.75;5019890;28;20030;-69
2023/01/10 04:27:08;;;;;;;17.50;12.85;;;;;;;8.26;100.00;98999.13;5015907;28;20076;-69
2023/01/10 04:29:33;;;;;;;15.27;12.10;;;;;;;8.24;100.00;98987.75;5013126;28;20475;-69
2023/01/10 04:31:59;;;;;;;17.58;11.90;;;;;;;8.22;100.00;98996.94;5014925;28;20038;-69
2023/01/10 04:34:25;;;;;;;15.85;11.68;;;;;;;8.12;100.00;98978.25;5024563;28;20120;-69
2023/01/10 04:36:50;;;;;;;17.38;12.30;;;;;;;8.26;100.00;99011.66;5023241;28;20147;-69
2023/01/10 04:39:16;;;;;;;16.27;12.15;;;;;;;8.17;100.00;99000.00;5004949;28;20076;-69
2023/01/10 04:41:41;;;;;;;14.75;11.93;;;;;;;8.16;100.00;99009.00;5007358;28;20029;-69
2023/01/10 04:44:07;;;;;;;19.23;13.15;;;;;;;8.23;100.00;99031.50;5006422;28;20021;-69
2023/01/10 04:46:33;;;;;;;16.20;12.40;;;;;;;8.24;100.00;99033.16;5002133;28;20036;-69
2023/01/10 04:48:58;;;;;;;17.10;12.40;;;;;;;8.13;100.00;99017.31;5014287;28;20040;-69
2023/01/10 04:51:25;;;;;;;18.65;13.10;;;;;;;8.14;100.00;99020.81;5008979;28;20129;-69
2023/01/10 04:53:51;;;;;;;17.65;12.95;;;;;;;8.25;100.00;99039.31;5018669;28;20029;-69
2023/01/10 04:56:18;;;;;;;18.00;12.80;;;;;;;8.20;100.00;99029.09;4999967;28;20121;-69
2023/01/10 04:58:44;;;;;;;18.60;13.25;;;;;;;8.22;100.00;99031.63;5020392;28;20033;-69
2023/01/10 05:01:12;;;;;;;18.05;12.35;;;;;;;8.17;100.00;99025.88;5004608;28;20043;-67
2023/01/10 05:03:37;;;;;;;17.15;12.02;;;;;;;8.21;100.00;99027.22;5007128;28;20041;-67
2023/01/10 05:06:04;;;;;;;17.25;13.02;;;;;;;8.22;100.00;99011.09;4995016;28;20030;-67
2023/01/10 05:08:30;;;;;;;19.48;13.63;;;;;;;8.23;100.00;99006.59;5002871;28;20471;-68
2023/01/10 05:10:55;;;;;;;17.67;12.95;;;;;;;8.26;100.00;99019.66;5006118;28;20087;-67
2023/01/10 05:13:21;;;;;;;22.17;15.05;;;;;;;8.18;100.00;99014.19;5006545;28;20030;-67
2023/01/10 05:15:46;;;;;;;22.02;16.15;;;;;;;8.24;100.00;99037.66;5004557;28;20033;-67
2023/01/10 05:18:12;;;;;;;20.55;16.25;;;;;;;8.20;100.00;99042.44;4997120;28;20026;-67
2023/01/10 05:20:37;;;;;;;22.20;14.93;;;;;;;8.16;100.00;99046.38;5020033;28;20483;-67
2023/01/10 05:23:03;;;;;;;21.55;13.43;;;;;;;8.16;100.00;99041.03;5008848;28;20037;-67
2023/01/10 05:25:28;;;;;;;18.40;14.00;;;;;;;8.20;100.00;99049.59;5010598;28;20483;-67
2023/01/10 05:27:54;;;;;;;18.08;13.63;;;;;;;8.18;100.00;99051.56;5017805;28;20487;-67
2023/01/10 05:30:19;;;;;;;19.83;13.55;;;;;;;8.18;100.00;99055.09;5009521;28;20022;-68
2023/01/10 05:32:44;;;;;;;17.13;13.07;;;;;;;8.22;100.00;99069.03;5004428;28;20042;-67
2023/01/10 05:35:10;;;;;;;20.17;13.20;;;;;;;8.19;100.00;99059.44;5014571;28;20034;-68
2023/01/10 05:37:35;;;;;;;20.25;13.05;;;;;;;8.22;100.00;99079.72;5016213;28;20052;-67
2023/01/10 05:40:01;;;;;;;19.33;14.02;;;;;;;8.19;100.00;99083.47;5020851;28;20422;-67
2023/01/10 05:42:26;;;;;;;19.25;12.68;;;;;;;8.20;100.00;99092.31;5023693;28;20387;-67
2023/01/10 05:44:52;;;;;;;21.48;15.18;;;;;;;8.13;100.00;99077.91;5012598;28;20018;-66
2023/01/10 05:47:17;;;;;;;17.80;13.40;;;;;;;8.16;100.00;99085.63;5010663;28;20451;-67
2023/01/10 05:49:42;;;;;;;21.92;14.35;;;;;;;8.19;100.00;99086.13;5020656;28;20029;-67
2023/01/10 05:52:08;;;;;;;20.58;13.82;;;;;;;8.13;100.00;99083.25;5004924;28;20030;-67
2023/01/10 05:54:33;;;;;;;20.42;14.70;;;;;;;8.05;100.00;99072.44;5014688;28;20034;-67
2023/01/10 05:56:59;;;;;;;19.20;13.85;;;;;;;8.19;100.00;99101.34;5026880;28;20057;-67
2023/01/10 05:59:24;;;;;;;21.55;15.27;;;;;;;8.17;100.00;99087.28;5026685;28;20387;-67
2023/01/10 06:01:49;;;;;;;19.67;14.05;;;;;;;8.16;100.00;99074.94;5013762;28;20029;-67
2023/01/10 06:04:15;;;;;;;19.95;13.90;;;;;;;8.13;100.00;99073.38;5025699;28;20069;-69
2023/01/10 06:06:41;;;;;;;21.38;14.48;;;;;;;8.16;100.00;99072.25;5025291;28;20029;-69
2023/01/10 06:09:06;;;;;;;25.42;15.77;;;;;;;8.15;100.00;99067.88;5016146;28;20442;-69
2023/01/10 06:11:35;;;;;;;24.00;16.08;;;;;;;8.15;100.00;99068.75;5017796;28;20061;-69
2023/01/10 06:14:01;;;;;;;25.35;16.08;;;;;;;8.08;100.00;99054.31;5004419;28;20433;-69
2023/01/10 06:16:27;;;;;;;23.80;14.77;;;;;;;8.16;100.00;99073.09;5015934;28;20033;-69
2023/01/10 06:18:52;;;;;;;21.92;15.13;;;;;;;8.09;100.00;99069.34;5023703;28;20756;-69
2023/01/10 06:21:18;;;;;;;19.15;14.57;;;;;;;8.17;100.00;99089.94;5022114;28;20392;-69
2023/01/10 06:23:43;;;;;;;21.33;15.00;;;;;;;8.16;100.00;99089.09;4996881;28;20111;-68
2023/01/10 06:26:09;;;;;;;23.40;14.38;;;;;;;8.20;100.00;99103.88;5024264;28;20025;-69
2023/01/10 06:28:35;;;;;;;21.63;15.05;;;;;;;8.16;100.00;99094.44;5014844;28;20180;-68
2023/01/10 06:31:00;;;;;;;20.15;13.98;;;;;;;8.14;100.00;99107.13;5013284;28;20365;-69
2023/01/10 06:33:25;;;;;;;19.98;14.20;;;;;;;8.16;100.00;99118.47;5019948;28;20389;-68
2023/01/10 06:35:51;;;;;;;21.92;14.80;;;;;;;8.04;100.00;99095.66;5001586;28;20048;-69
2023/01/10 06:38:17;;;;;;;20.80;15.10;;;;;;;8.14;100.00;99117.81;5026631;28;20040;-69
2023/01/10 06:40:42;;;;;;;19.90;14.13;;;;;;;8.13;100.00;99115.28;5017445;28;20108;-69
2023/01/10 06:43:08;;;;;;;20.48;14.77;;;;;;;8.21;100.00;99128.72;5020539;28;20744;-67
2023/01/10 06:45:33;;;;;;;23.08;15.90;;;;;;;8.25;100.00;99130.13;4996154;28;20014;-67
2023/01/10 06:47:59;;;;;;;22.63;15.40;;;;;;;8.18;100.00;99151.22;5008639;28;20033;-67
2023/01/10 06:50:24;;;;;;;22.63;15.40;;;;;;;8.15;100.00;99145.34;5018401;28;20033;-67
2023/01/10 06:53:01;;;;;;;22.95;15.20;;;;;;;7.97;100.00;99133.78;5019237;28;20041;-67
2023/01/10 06:55:27;;;;;;;22.00;15.75;;;;;;;8.06;100.00;99164.94;5021804;28;20599;-67
2023/01/10 06:58:00;;;;;;;21.77;14.77;;;;;;;7.99;100.00;99158.47;5025069;28;20076;-68
2023/01/10 07:00:26;;;;;;;21.73;15.68;;;;;;;7.99;100.00;99170.00;5021088;28;20055;-67
2023/01/10 07:02:55;;;;;;;30.27;17.98;;;;;;;7.99;100.00;99170.00;5001585;28;20021;-67
2023/01/10 07:05:20;;;;;;;26.83;17.38;;;;;;;7.96;100.00;99180.16;5020277;28;20052;-67
2023/01/10 07:07:46;;;;;;;28.30;19.23;;;;;;;7.90;100.00;99170.03;5023240;28;20041;-66
2023/01/10 07:10:11;;;;;;;28.20;19.75;;;;;;;7.77;100.00;99145.50;5025838;28;20025;-67
2023/01/10 07:12:37;;;;;;;26.88;17.90;;;;;;;7.94;100.00;99160.75;5021367;28;20025;-67
2023/01/10 07:15:03;;;;;;;28.20;19.70;;;;;;;8.03;100.00;99186.59;5007220;28;20033;-67
2023/01/10 07:17:29;;;;;;;31.27;19.95;;;;;;;8.03;100.00;99194.59;5023406;28;20036;-67
2023/01/10 07:19:55;;;;;;;32.55;18.92;;;;;;;8.01;100.00;99200.06;5025607;28;20025;-67
2023/01/10 07:22:20;;;;;;;28.80;18.20;;;;;;;8.03;100.00;99207.94;5015087;28;20529;-67
2023/01/10 07:24:45;;;;;;;26.13;18.15;;;;;;;7.98;100.00;99204.84;5012013;28;20091;-67
2023/01/10 07:27:11;;;;;;;25.65;17.65;;;;;;;8.04;100.00;99212.28;5005380;28;20480;-67
2023/01/10 07:29:37;;;;;;;27.45;18.52;;;;;;;8.04;100.00;99218.47;5016178;28;20095;-67
2023/01/10 07:32:02;;;;;;;24.83;18.02;;;;;;;7.96;100.00;99206.84;4997386;28;20225;-66
2023/01/10 07:46:31;;;;;;;30.50;21.00;;;;;;;8.10;100.00;99203.69;5089032;27;20898;-71
2023/01/10 07:48:56;;;;;;;34.25;23.30;;;;;;;8.11;100.00;99206.22;5104617;28;20038;-70
2023/01/10 10:48:57;;;;;;;54.30;28.88;;;;;;;7.97;100.00;99511.00;5128948;27;20375;-69
2023/01/10 10:51:23;;;;;;;47.47;25.75;;;;;;;8.05;100.00;99529.03;5127741;27;20032;-68
2023/01/10 10:53:49;;;;;;;42.85;23.00;;;;;;;8.04;100.00;99512.19;5127554;28;20127;-69
2023/01/10 10:56:18;;;;;;;42.58;22.73;;;;;;;8.11;100.00;99513.31;5120066;28;20106;-69
2023/01/10 10:58:47;;;;;;;36.78;21.70;;;;;;;8.15;100.00;99509.38;5125206;27;20039;-69
2023/01/10 11:01:14;;;;;;;46.15;23.08;;;;;;;8.16;100.00;99516.38;5118123;28;20475;-70
2023/01/10 11:03:42;;;;;;;39.35;22.20;;;;;;;8.20;100.00;99520.50;5116304;27;20020;-69
2023/01/10 11:06:09;;;;;;;37.70;22.50;;;;;;;8.21;100.00;99511.47;5119756;27;20024;-70
2023/01/10 11:08:42;;;;;;;39.33;21.83;;;;;;;8.22;100.00;99518.53;5116521;27;20064;-70
2023/01/10 11:11:25;;;;;;;41.45;21.77;;;;;;;8.26;100.00;99516.44;5115573;28;20020;-70
2023/01/10 11:13:55;;;;;;;41.10;22.43;;;;;;;8.24;100.00;99516.59;5114451;27;20032;-70
2023/01/10 11:16:30;;;;;;;38.53;22.05;;;;;;;8.25;100.00;99520.09;5114297;27;20280;-71
2023/01/10 11:19:18;;;;;;;36.60;21.80;;;;;;;8.26;100.00;99517.28;5107735;28;20431;-69
2023/01/10 11:21:57;;;;;;;40.97;23.77;;;;;;;8.28;100.00;99519.81;5116484;27;20023;-69
2023/01/10 11:24:49;;;;;;;45.05;22.02;;;;;;;8.28;100.00;99517.13;5110721;28;20023;-70
2023/01/10 11:27:17;;;;;;;42.40;23.05;;;;;;;8.28;100.00;99522.47;5121348;27;20076;-69
2023/01/10 11:30:04;;;;;;;41.60;23.63;;;;;;;8.24;100.00;99516.59;5119403;27;20032;-70
2023/01/10 11:32:34;;;;;;;44.53;24.48;;;;;;;8.28;100.00;99520.66;5111602;28;20723;-69
2023/01/10 11:35:20;;;;;;;43.78;25.13;;;;;;;8.31;100.00;99523.06;5111221;27;20444;-69
2023/01/10 11:38:17;;;;;;;44.88;23.73;;;;;;;8.27;100.00;99512.78;5113499;27;20487;-69
2023/01/10 11:41:04;;;;;;;42.15;24.45;;;;;;;8.32;100.00;99538.09;5118003;28;20843;-67
2023/01/10 11:43:38;;;;;;;43.22;25.20;;;;;;;8.30;100.00;99544.56;5124871;27;20487;-69
2023/01/10 11:46:23;;;;;;;42.80;24.05;;;;;;;8.24;100.00;99535.28;5126058;27;20034;-71
2023/01/10 11:49:00;;;;;;;47.63;27.23;;;;;;;8.28;100.00;99541.16;5117415;27;20039;-69
2023/01/10 11:51:29;;;;;;;55.70;30.27;;;;;;;8.30;100.00;99549.91;5113085;28;20028;-69
2023/01/10 11:54:01;;;;;;;47.40;27.08;;;;;;;8.28;100.00;99554.53;5111569;28;20448;-69
2023/01/10 11:56:35;;;;;;;54.03;28.08;;;;;;;8.14;100.00;99537.06;5112340;28;20019;-69
2023/01/10 11:59:11;;;;;;;53.97;29.42;;;;;;;8.29;100.00;99565.06;5112566;28;20041;-68
2023/01/10 12:01:44;;;;;;;52.45;29.65;;;;;;;8.26;100.00;99561.84;5112883;28;20035;-69
2023/01/10 12:04:31;;;;;;;51.95;29.05;;;;;;;8.25;100.00;99576.16;5112733;28;20023;-69
2023/01/10 12:07:04;;;;;;;53.63;28.10;;;;;;;8.26;100.00;99575.22;5112105;28;20444;-70
2023/01/10 12:09:35;;;;;;;54.60;29.42;;;;;;;8.26;100.00;99584.03;5112583;28;20032;-68
2023/01/10 12:12:13;;;;;;;50.25;29.17;;;;;;;8.27;100.00;99596.44;5112459;28;20423;-69
2023/01/10 12:14:38;;;;;;;46.10;26.80;;;;;;;8.21;100.00;99599.63;5111160;28;20038;-69
2023/01/10 12:17:04;;;;;;;40.88;23.63;;;;;;;8.22;100.00;99603.19;5112122;28;20015;-69
2023/01/10 12:19:29;;;;;;;47.90;26.40;;;;;;;8.26;100.00;99624.13;5112074;28;20353;-68
2023/01/10 12:22:01;;;;;;;44.95;25.88;;;;;;;8.24;100.00;99625.25;5112361;28;20459;-69
2023/01/10 12:24:34;;;;;;;45.97;25.65;;;;;;;8.21;100.00;99625.47;5110870;28;20027;-69
2023/01/10 12:27:02;;;;;;;48.05;26.52;;;;;;;8.19;100.00;99630.13;5111782;28;20076;-70
2023/01/10 12:29:39;;;;;;;47.42;27.00;;;;;;;8.18;100.00;99626.59;5111900;28;20059;-69
2023/01/10 12:32:18;;;;;;;50.92;28.77;;;;;;;8.14;100.00;99635.88;5110813;28;20030;-68
2023/01/10 12:34:49;;;;;;;52.00;28.33;;;;;;;8.19;100.00;99652.31;5111907;28;20487;-68
2023/01/10 12:37:22;;;;;;;54.53;31.08;;;;;;;8.12;100.00;99653.00;5111829;28;20461;-69
2023/01/10 12:39:54;;;;;;;56.80;31.60;;;;;;;8.08;100.00;99654.25;5097847;28;20656;-69
2023/01/10 12:45:41;;;;;;;62.20;30.80;;;;;;;8.05;100.00;99665.22;5098592;28;20054;-69
2023/01/10 12:48:16;;;;;;;54.90;30.20;;;;;;;8.08;100.00;99664.94;5108059;28;20055;-69
2023/01/10 12:50:52;;;;;;;64.15;32.85;;;;;;;8.06;100.00;99667.75;5111788;28;20036;-69
2023/01/10 12:53:39;;;;;;;57.03;30.10;;;;;;;8.05;100.00;99667.88;5110096;27;20398;-70
2023/01/10 12:56:10;;;;;;;55.50;29.08;;;;;;;8.01;100.00;99663.78;5109828;28;20034;-70
2023/01/10 12:58:46;;;;;;;53.90;30.02;;;;;;;8.04;100.00;99671.53;5110712;28;20027;-70
2023/01/10 13:01:28;;;;;;;58.13;29.63;;;;;;;8.05;100.00;99684.75;5094811;28;20055;-70
2023/01/10 13:04:00;;;;;;;52.53;28.65;;;;;;;8.04;100.00;99682.22;5101343;28;20069;-70
2023/01/10 13:06:38;;;;;;;51.47;28.25;;;;;;;8.03;100.00;99696.56;5111016;28;20130;-69
2023/01/10 13:09:18;;;;;;;53.17;28.45;;;;;;;8.05;100.00;99715.94;5110840;28;20501;-68
2023/01/10 13:12:02;;;;;;;46.58;26.60;;;;;;;7.94;100.00;99706.22;5111285;28;20575;-69
2023/01/10 13:14:38;;;;;;;44.05;24.92;;;;;;;7.98;100.00;99699.63;5111090;28;20112;-68
2023/01/10 13:17:25;;;;;;;42.88;26.02;;;;;;;8.03;100.00;99715.25;5110006;28;20471;-69
2023/01/10 13:20:15;;;;;;;52.03;26.50;;;;;;;8.03;100.00;99720.59;5110020;28;20039;-70
2023/01/10 13:22:46;;;;;;;46.53;26.45;;;;;;;7.97;100.00;99719.28;5109189;28;20028;-69
2023/01/10 13:25:24;;;;;;;43.60;26.15;;;;;;;8.02;100.00;99733.09;5111232;28;20110;-69
2023/01/10 13:28:01;;;;;;;38.90;22.42;;;;;;;8.02;100.00;99748.25;5110703;27;20081;-69
2023/01/10 13:30:32;;;;;;;34.63;20.90;;;;;;;8.07;100.00;99751.38;5111028;28;20123;-68
2023/01/10 13:33:03;;;;;;;32.78;20.10;;;;;;;7.99;100.00;99749.38;5110756;28;20065;-69
2023/01/10 13:35:41;;;;;;;30.80;18.13;;;;;;;8.07;100.00;99757.56;5111114;28;20471;-70
2023/01/10 13:38:28;;;;;;;25.02;16.65;;;;;;;8.08;100.00;99763.75;5110113;28;20069;-69
2023/01/10 13:43:17;;;;;;;17.83;11.57;;;;;;;8.06;100.00;99760.38;5110773;28;20070;-69
2023/01/10 13:44:06;;;;;;;13.43;8.50;;;;;;;8.08;100.00;99763.75;5110239;28;20046;-70
2023/01/10 13:46:35;;;;;;;4.88;3.83;;;;;;;8.11;100.00;99780.38;5108889;28;20061;-70
2023/01/10 13:49:02;;;;;;;5.38;3.80;;;;;;;8.08;100.00;99779.75;5110458;28;20040;-70
2023/01/10 13:51:29;;;;;;;2.90;2.45;;;;;;;7.93;100.00;99783.78;5110712;28;20506;-68
2023/01/10 13:54:00;;;;;;;3.30;2.60;;;;;;;8.04;100.00;99813.91;5110483;28;20422;-69
2023/01/10 13:56:38;;;;;;;3.05;2.65;;;;;;;8.02;100.00;99817.69;5110638;28;20051;-68
2023/01/10 14:04:36;;;;;;;3.17;2.58;;;;;;;7.92;100.00;99844.31;5110220;28;20039;-69
2023/01/10 14:07:24;;;;;;;3.75;2.95;;;;;;;7.92;100.00;99843.47;5110459;28;20039;-70
2023/01/10 14:09:51;;;;;;;4.03;3.00;;;;;;;7.88;100.00;99847.38;5108808;28;20035;-69
2023/01/10 14:12:19;;;;;;;5.13;3.17;;;;;;;7.85;100.00;99852.97;5108636;28;20020;-68
2023/01/10 14:14:52;;;;;;;3.80;2.78;;;;;;;7.75;100.00;99862.72;5110239;28;20035;-67
2023/01/10 14:17:24;;;;;;;5.40;3.60;;;;;;;7.71;100.00;99874.66;5110405;28;20057;-68
2023/01/10 14:20:19;;;;;;;4.68;3.30;;;;;;;7.62;100.00;99883.41;5097913;28;20043;-69
2023/01/10 14:23:21;;;;;;;4.30;2.92;;;;;;;7.58;100.00;99895.31;5105526;28;20049;-69
2023/01/10 14:25:56;;;;;;;4.05;3.15;;;;;;;7.46;100.00;99875.81;5098938;28;20106;-69
2023/01/10 14:28:28;;;;;;;3.80;2.45;;;;;;;7.57;100.00;99901.59;5108106;28;20062;-69
2023/01/10 14:31:06;;;;;;;3.67;2.70;;;;;;;7.54;100.00;99899.22;5109468;28;20510;-68
2023/01/10 14:33:34;;;;;;;3.90;2.90;;;;;;;7.50;100.00;99901.28;5109778;28;20027;-69
2023/01/10 14:36:08;;;;;;;2.35;2.03;;;;;;;7.55;100.00;99908.91;5109780;28;20527;-69
2023/01/10 14:38:36;;;;;;;;;;;;;;;7.55;100.00;99908.91;5109316;28;20089;-69
2023/01/10 14:41:13;;;;;;;2.28;1.60;;;;;;;7.38;100.00;99915.59;5109380;28;19915;-69
2023/01/10 14:43:47;;;;;;;2.83;1.88;;;;;;;7.43;100.00;99932.09;5110007;28;20398;-68
2023/01/10 14:46:21;;;;;;;1.95;1.60;;;;;;;7.48;100.00;99926.38;5109964;28;20459;-70
2023/01/10 14:48:49;;;;;;;6.35;4.03;;;;;;;7.40;100.00;99929.66;5108695;28;20062;-70
2023/01/10 14:51:29;;;;;;;5.30;3.00;;;;;;;7.37;100.00;99953.94;5109796;28;20124;-70
2023/01/10 14:53:56;;;;;;;4.88;2.20;;;;;;;7.33;100.00;99954.28;5107735;28;20106;-69
2023/01/10 14:56:25;;;;;;;4.60;3.30;;;;;;;7.26;100.00;99943.28;5109100;28;20080;-69
2023/01/10 14:58:50;;;;;;;3.13;2.58;;;;;;;7.30;100.00;99957.19;5107939;28;20046;-70
2023/01/10 15:01:22;;;;;;;4.72;2.58;;;;;;;7.35;100.00;99973.69;5109331;28;20036;-66
2023/01/10 15:03:48;;;;;;;3.28;2.08;;;;;;;7.29;100.00;99958.19;5109144;28;20027;-68
2023/01/10 15:06:13;;;;;;;2.40;1.65;;;;;;;7.17;100.00;99967.16;5108010;28;20031;-69